Time;durP1;ratioP1;P1;durP2;ratioP2;P2;SDS_P1;SDS_P2;PMS_P1;PMS_P2;Temp;Humidity;BMP_temperature;BMP_pressure;BME280_temperature;BME280_humidity;BME280_pressure;Samples;Min_cycle;Max_cycle;Signal;HPM_P1;HPM_P2
2021/12/16 00:09:00;;;;;;;14.52;2.80;;;8.30;99.90;;;;;;6185438;23;20013;-67
2021/12/16 00:33:46;;;;;;;8.52;3.15;;;8.90;99.90;;;;;;6185598;23;20108;-67
2021/12/16 00:36:14;;;;;;;9.25;3.10;;;9.00;99.90;;;;;;6185466;23;20028;-67
2021/12/16 00:38:44;;;;;;;9.20;3.28;;;8.80;99.90;;;;;;6185432;23;20004;-67
2021/12/16 00:41:11;;;;;;;11.68;3.17;;;8.80;99.90;;;;;;6185469;23;20019;-67
2021/12/16 00:49:20;;;;;;;10.38;3.45;;;8.60;99.90;;;;;;6185379;23;20017;-67
2021/12/16 00:54:37;;;;;;;5.53;2.85;;;8.60;99.90;;;;;;6183821;23;20013;-67
2021/12/16 00:57:10;;;;;;;9.82;3.25;;;8.60;99.90;;;;;;6185115;23;20029;-67
2021/12/16 00:59:40;;;;;;;8.77;3.55;;;8.60;99.90;;;;;;6183906;23;20059;-67
2021/12/16 01:02:37;;;;;;;9.13;2.75;;;8.50;99.90;;;;;;6183793;23;20099;-67
2021/12/16 01:49:50;;;;;;;8.63;3.03;;;8.30;99.90;;;;;;6183228;23;20443;-67
2021/12/16 01:57:53;;;;;;;8.57;2.95;;;8.10;99.90;;;;;;6185291;23;20331;-67
2021/12/16 02:00:43;;;;;;;8.40;2.83;;;8.10;99.90;;;;;;6184946;23;20040;-67
2021/12/16 02:03:10;;;;;;;12.30;3.40;;;8.10;99.90;;;;;;6183310;23;20383;-67
2021/12/16 02:08:19;;;;;;;8.10;3.00;;;8.10;99.90;;;;;;6183288;23;20009;-67
2021/12/16 02:11:01;;;;;;;16.73;3.30;;;8.10;99.90;;;;;;6184533;23;20012;-67
2021/12/16 02:13:49;;;;;;;8.98;2.70;;;8.10;99.90;;;;;;6184684;23;20004;-67
2021/12/16 02:27:35;;;;;;;12.95;3.63;;;7.90;99.90;;;;;;6184726;23;20012;-67
2021/12/16 02:33:17;;;;;;;8.10;3.70;;;7.80;99.90;;;;;;6184326;23;20037;-67
2021/12/16 02:35:59;;;;;;;12.57;3.08;;;7.80;99.90;;;;;;6184539;23;20021;-67
2021/12/16 02:38:30;;;;;;;12.55;3.70;;;7.80;99.90;;;;;;6183067;23;20409;-68
2021/12/16 02:40:59;;;;;;;13.35;3.35;;;7.70;99.90;;;;;;6184549;23;20028;-68
2021/12/16 02:48:42;;;;;;;8.57;3.80;;;7.70;99.90;;;;;;6184458;23;20088;-68
2021/12/16 02:51:18;;;;;;;11.43;3.47;;;7.60;99.90;;;;;;6184567;23;20059;-68
2021/12/16 02:53:51;;;;;;;17.38;3.83;;;7.60;99.90;;;;;;6182977;23;20013;-68
2021/12/16 02:56:19;;;;;;;8.10;3.57;;;7.60;99.90;;;;;;6182827;23;20013;-68
2021/12/16 02:58:52;;;;;;;10.40;3.10;;;7.60;99.90;;;;;;6182834;23;20279;-68
2021/12/16 03:01:39;;;;;;;9.73;3.22;;;7.50;99.90;;;;;;6184381;23;20008;-68
2021/12/16 03:04:13;;;;;;;9.55;3.72;;;7.50;99.90;;;;;;6185785;23;20088;-68
2021/12/16 03:06:44;;;;;;;10.80;3.47;;;7.50;99.90;;;;;;6185869;23;20013;-68
2021/12/16 03:09:14;;;;;;;8.05;3.25;;;7.50;99.90;;;;;;6184204;23;20454;-68
2021/12/16 03:12:11;;;;;;;10.30;3.85;;;7.40;99.90;;;;;;6186041;23;20005;-68
2021/12/16 03:14:46;;;;;;;11.25;3.33;;;7.40;99.90;;;;;;6185599;23;20010;-68
2021/12/16 03:20:32;;;;;;;18.65;4.05;;;7.30;99.90;;;;;;6185694;23;20001;-68
2021/12/16 03:23:13;;;;;;;11.80;3.92;;;7.30;99.90;;;;;;6181329;23;20013;-68
2021/12/16 03:28:54;;;;;;;8.63;3.65;;;7.30;99.90;;;;;;6185535;23;20009;-68
2021/12/16 03:31:19;;;;;;;5.63;2.97;;;7.30;99.90;;;;;;6185292;23;20013;-68
2021/12/16 03:36:50;;;;;;;7.55;2.85;;;7.30;99.90;;;;;;6184058;23;20520;-68
2021/12/16 03:39:17;;;;;;;9.00;3.38;;;7.30;99.90;;;;;;6185529;23;20005;-68
2021/12/16 03:41:44;;;;;;;9.15;3.92;;;7.20;99.90;;;;;;6185575;23;20005;-68
2021/12/16 03:44:14;;;;;;;14.82;4.93;;;7.20;99.90;;;;;;6186700;23;20443;-68
2021/12/16 03:46:48;;;;;;;12.95;4.03;;;7.20;99.90;;;;;;6187400;23;20072;-68
2021/12/16 03:49:26;;;;;;;9.80;3.25;;;7.20;99.90;;;;;;6187438;23;20028;-68
2021/12/16 03:52:06;;;;;;;15.05;4.00;;;7.10;99.90;;;;;;6187359;23;20005;-68
2021/12/16 03:54:49;;;;;;;13.65;4.53;;;7.10;99.90;;;;;;6187349;23;20427;-68
2021/12/16 03:57:21;;;;;;;9.00;3.60;;;7.10;99.90;;;;;;6187579;23;20041;-68
2021/12/16 03:59:49;;;;;;;10.40;3.85;;;7.00;99.90;;;;;;6187613;23;20001;-68
2021/12/16 04:02:38;;;;;;;10.43;3.22;;;6.90;99.90;;;;;;6166568;23;20088;-68
2021/12/16 04:05:07;;;;;;;17.25;3.90;;;6.90;99.90;;;;;;6185794;23;20085;-68
2021/12/16 04:07:39;;;;;;;12.27;3.47;;;6.90;99.90;;;;;;6185880;23;20395;-69
2021/12/16 04:10:46;;;;;;;8.40;3.47;;;6.90;99.90;;;;;;6187527;23;20068;-68
2021/12/16 04:13:17;;;;;;;10.57;3.00;;;6.90;99.90;;;;;;6187162;23;20007;-68
2021/12/16 04:15:49;;;;;;;8.73;3.13;;;6.80;99.90;;;;;;6187293;23;20043;-68
2021/12/16 04:18:18;;;;;;;8.88;3.55;;;6.80;99.90;;;;;;6187802;23;20027;-68
2021/12/16 04:20:47;;;;;;;8.25;2.95;;;6.90;99.90;;;;;;6187080;23;20366;-68
2021/12/16 04:23:18;;;;;;;8.55;3.28;;;6.90;99.90;;;;;;6186983;23;20001;-68
2021/12/16 04:25:47;;;;;;;10.32;3.42;;;6.90;99.90;;;;;;6186957;23;20005;-68
2021/12/16 04:28:24;;;;;;;9.45;3.95;;;6.90;99.90;;;;;;6185357;23;20017;-68
2021/12/16 04:30:54;;;;;;;10.73;4.10;;;6.90;99.90;;;;;;6186680;23;20013;-68
2021/12/16 04:33:25;;;;;;;17.77;3.15;;;7.00;99.90;;;;;;6186989;23;20024;-68
2021/12/16 04:35:53;;;;;;;11.38;3.95;;;7.00;99.90;;;;;;6186740;23;20017;-68
2021/12/16 04:38:19;;;;;;;9.48;4.10;;;7.00;99.90;;;;;;6187313;23;20079;-68
2021/12/16 04:40:49;;;;;;;12.23;3.72;;;7.10;99.90;;;;;;6187224;23;20327;-68
2021/12/16 04:43:21;;;;;;;8.00;2.92;;;7.10;99.90;;;;;;6185288;23;20005;-68
2021/12/16 04:46:03;;;;;;;7.22;3.38;;;7.10;99.90;;;;;;6187154;23;20016;-68
2021/12/16 04:48:33;;;;;;;4.80;3.15;;;7.20;99.90;;;;;;6186783;23;20001;-68
2021/12/16 04:51:04;;;;;;;15.55;2.85;;;7.30;99.90;;;;;;6186732;23;20015;-68
2021/12/16 04:53:38;;;;;;;6.78;3.25;;;7.30;99.90;;;;;;6187084;23;20075;-68
2021/12/16 04:56:07;;;;;;;8.07;3.72;;;7.30;99.90;;;;;;6185109;23;20013;-68
2021/12/16 04:58:52;;;;;;;9.57;3.35;;;7.30;99.90;;;;;;6186974;23;20036;-68
2021/12/16 05:01:20;;;;;;;7.57;3.40;;;7.30;99.90;;;;;;6185295;23;20052;-68
2021/12/16 05:03:51;;;;;;;8.52;3.22;;;7.30;99.90;;;;;;6186487;23;20005;-68
2021/12/16 05:06:19;;;;;;;14.43;3.58;;;7.30;99.90;;;;;;6185160;23;20013;-68
2021/12/16 05:08:46;;;;;;;11.55;3.17;;;7.30;99.90;;;;;;6184991;23;20016;-69
2021/12/16 05:11:26;;;;;;;19.67;3.58;;;7.30;99.90;;;;;;6186873;23;20009;-68
2021/12/16 05:13:53;;;;;;;7.68;3.50;;;7.30;99.90;;;;;;6186444;23;20040;-68
2021/12/16 05:16:23;;;;;;;6.97;3.20;;;7.20;99.90;;;;;;6186516;23;20095;-71
2021/12/16 05:18:53;;;;;;;8.55;4.05;;;7.20;99.90;;;;;;6186435;23;20012;-71
2021/12/16 05:24:25;;;;;;;7.07;2.97;;;7.10;99.90;;;;;;6186350;23;20001;-72
2021/12/16 05:27:01;;;;;;;13.20;2.78;;;7.10;99.90;;;;;;6186350;23;20008;-72
2021/12/16 05:29:31;;;;;;;8.52;3.15;;;7.00;99.90;;;;;;6186400;23;20012;-72
2021/12/16 05:32:01;;;;;;;10.48;3.45;;;6.90;99.90;;;;;;6185972;23;20017;-72
2021/12/16 05:34:28;;;;;;;15.00;3.95;;;6.90;99.90;;;;;;6184768;23;20009;-71
2021/12/16 05:36:58;;;;;;;6.97;3.03;;;6.80;99.90;;;;;;6184721;23;20095;-69
2021/12/16 05:39:28;;;;;;;7.80;3.13;;;6.80;99.90;;;;;;6186231;23;20005;-71
2021/12/16 05:42:18;;;;;;;14.57;4.20;;;6.80;99.90;;;;;;6204674;23;20067;-71
2021/12/16 05:44:45;;;;;;;10.38;3.63;;;6.70;99.90;;;;;;6186524;23;20366;-71
2021/12/16 05:47:12;;;;;;;17.02;5.15;;;6.60;99.90;;;;;;6186271;23;20001;-71
2021/12/16 05:49:39;;;;;;;10.40;3.95;;;6.60;99.90;;;;;;6186224;23;20005;-71
2021/12/16 05:52:06;;;;;;;10.95;4.28;;;6.50;99.90;;;;;;6184636;23;20005;-71
2021/12/16 05:54:33;;;;;;;11.10;4.20;;;6.50;99.90;;;;;;6184686;23;20079;-71
2021/12/16 05:57:13;;;;;;;8.95;4.57;;;6.50;99.90;;;;;;6184849;23;20017;-71
2021/12/16 05:59:49;;;;;;;11.38;4.60;;;6.50;99.90;;;;;;6186397;23;20330;-71
2021/12/16 06:02:16;;;;;;;14.30;4.90;;;6.50;99.90;;;;;;6186056;23;20013;-71
2021/12/16 06:04:43;;;;;;;12.55;4.72;;;6.40;99.90;;;;;;6186243;23;19997;-71
2021/12/16 06:07:13;;;;;;;13.60;4.50;;;6.40;99.90;;;;;;6185856;23;20013;-71
2021/12/16 06:09:43;;;;;;;12.65;4.85;;;6.40;99.90;;;;;;6185993;23;20454;-71
2021/12/16 06:12:11;;;;;;;13.05;5.00;;;6.40;99.90;;;;;;6186165;23;20450;-70
2021/12/16 06:28:36;;;;;;;13.52;4.75;;;6.30;99.90;;;;;;6185836;23;20016;-70
2021/12/16 06:31:03;;;;;;;18.33;6.10;;;6.30;99.90;;;;;;6185718;23;20028;-71
2021/12/16 06:33:30;;;;;;;16.52;6.65;;;6.30;99.90;;;;;;6186280;23;20036;-71
2021/12/16 06:35:59;;;;;;;24.25;5.95;;;6.20;99.90;;;;;;6185828;23;20040;-70
2021/12/16 06:38:28;;;;;;;17.88;5.65;;;6.20;99.90;;;;;;6185781;23;20013;-70
2021/12/16 06:41:17;;;;;;;16.92;5.55;;;6.30;99.90;;;;;;6186128;23;20383;-70
2021/12/16 06:43:49;;;;;;;22.95;7.20;;;6.30;99.90;;;;;;6195839;23;20013;-70
2021/12/16 06:46:20;;;;;;;21.20;6.57;;;6.30;99.90;;;;;;6186131;23;20001;-71
2021/12/16 06:48:55;;;;;;;13.82;5.68;;;6.30;99.90;;;;;;6186237;23;20005;-70
2021/12/16 06:51:34;;;;;;;27.23;6.85;;;6.50;99.90;;;;;;6185704;23;20005;-70
2021/12/16 06:54:10;;;;;;;20.17;6.35;;;6.50;99.90;;;;;;6185793;23;20483;-70
2021/12/16 06:56:48;;;;;;;16.13;5.18;;;6.60;99.90;;;;;;6185600;23;20044;-70
2021/12/16 06:59:32;;;;;;;15.00;5.25;;;6.70;99.90;;;;;;6184315;23;20001;-70
2021/12/16 07:02:06;;;;;;;15.55;5.05;;;6.70;99.90;;;;;;6184534;23;20013;-70
2021/12/16 07:04:34;;;;;;;;;;;6.80;99.90;;;;;;6186245;23;20009;-70
2021/12/16 07:07:01;;;;;;;12.00;5.32;;;6.90;99.90;;;;;;6185709;23;19900;-70
2021/12/16 07:09:28;;;;;;;19.25;5.70;;;6.90;99.90;;;;;;6185732;23;20001;-70
2021/12/16 07:11:58;;;;;;;14.95;5.15;;;6.90;99.90;;;;;;6186018;23;20032;-70
2021/12/16 07:14:38;;;;;;;17.02;4.95;;;6.90;99.90;;;;;;6184534;23;20001;-70
2021/12/16 07:17:11;;;;;;;13.15;4.95;;;6.90;99.90;;;;;;6186030;23;20017;-70
2021/12/16 07:19:40;;;;;;;18.00;5.65;;;7.00;99.90;;;;;;6187410;23;20478;-71
2021/12/16 07:22:08;;;;;;;18.45;5.35;;;7.10;99.90;;;;;;6188525;23;20009;-70
2021/12/16 07:24:35;;;;;;;20.25;4.55;;;7.20;99.90;;;;;;6187539;23;20016;-70
2021/12/16 07:27:03;;;;;;;10.52;4.20;;;7.30;99.90;;;;;;6187587;23;20029;-70
2021/12/16 07:29:30;;;;;;;12.05;4.40;;;7.40;99.90;;;;;;6187643;23;20040;-70
2021/12/16 07:31:59;;;;;;;11.57;4.53;;;7.40;99.90;;;;;;6187289;23;20421;-70
2021/12/16 07:34:26;;;;;;;36.10;5.82;;;7.50;99.90;;;;;;6187954;23;20084;-70
2021/12/16 07:36:53;;;;;;;12.63;4.15;;;7.60;99.90;;;;;;6187718;23;20017;-70
2021/12/16 07:39:28;;;;;;;13.32;4.38;;;7.60;99.90;;;;;;6187920;23;20444;-70
2021/12/16 07:41:57;;;;;;;14.48;5.40;;;7.70;99.90;;;;;;6188388;23;20029;-70
2021/12/16 07:44:24;;;;;;;13.60;4.25;;;7.70;99.90;;;;;;6187370;23;20320;-70
2021/12/16 07:46:55;;;;;;;15.75;4.47;;;7.80;99.90;;;;;;6187345;23;20009;-70
2021/12/16 07:49:24;;;;;;;17.95;4.72;;;7.90;99.90;;;;;;6185925;23;20012;-70
2021/12/16 07:51:52;;;;;;;9.73;4.57;;;8.00;99.90;;;;;;6187381;23;20063;-70
2021/12/16 07:54:20;;;;;;;12.77;4.90;;;8.10;99.90;;;;;;6187266;23;20461;-70
2021/12/16 07:56:50;;;;;;;9.98;4.53;;;8.20;99.90;;;;;;6187192;23;20013;-70
2021/12/16 07:59:19;;;;;;;13.55;5.10;;;8.30;99.90;;;;;;6187222;23;20015;-70
2021/12/16 08:01:46;;;;;;;10.73;5.07;;;8.40;99.90;;;;;;6185718;23;20051;-70
2021/12/16 08:04:22;;;;;;;23.75;5.80;;;8.40;99.90;;;;;;6187639;23;20028;-70
2021/12/16 08:06:52;;;;;;;17.35;6.00;;;8.50;99.90;;;;;;6187304;23;20426;-70
2021/12/16 08:09:20;;;;;;;17.33;6.00;;;8.60;99.90;;;;;;6185856;23;20339;-70
2021/12/16 08:11:49;;;;;;;17.58;5.35;;;8.70;99.90;;;;;;6186958;23;20012;-70
2021/12/16 08:14:17;;;;;;;14.48;4.80;;;8.80;99.90;;;;;;6187034;23;20463;-70
2021/12/16 08:16:44;;;;;;;15.13;4.70;;;8.90;99.90;;;;;;6186874;23;20013;-70
2021/12/16 08:19:13;;;;;;;12.32;5.00;;;8.90;99.90;;;;;;6187211;23;20332;-70
2021/12/16 08:21:40;;;;;;;12.27;4.65;;;9.00;99.90;;;;;;6187082;23;20013;-70
2021/12/16 08:24:10;;;;;;;15.43;4.80;;;9.10;99.90;;;;;;6187145;23;20005;-70
2021/12/16 08:26:38;;;;;;;13.77;3.60;;;9.20;99.90;;;;;;6187166;23;20076;-70
2021/12/16 08:29:05;;;;;;;7.97;3.40;;;9.30;99.90;;;;;;6186816;23;20020;-70
2021/12/16 08:31:32;;;;;;;10.07;2.95;;;9.50;99.90;;;;;;6185224;23;20017;-70
2021/12/16 08:34:00;;;;;;;6.65;2.83;;;9.70;99.90;;;;;;6187310;23;20009;-70
2021/12/16 08:36:28;;;;;;;5.22;2.40;;;9.80;99.90;;;;;;6187249;23;20009;-70
2021/12/16 08:38:56;;;;;;;8.40;2.70;;;10.00;99.90;;;;;;6186853;23;20005;-70
2021/12/16 08:41:31;;;;;;;5.50;2.10;;;10.10;99.90;;;;;;6186762;23;20005;-70
2021/12/16 08:43:58;;;;;;;4.07;2.00;;;10.30;99.90;;;;;;6187226;23;20368;-70
2021/12/16 08:46:28;;;;;;;3.55;1.70;;;10.40;99.90;;;;;;6186722;23;20005;-70
2021/12/16 08:48:55;;;;;;;4.85;1.73;;;10.50;99.90;;;;;;6187168;23;20005;-70
2021/12/16 08:51:26;;;;;;;4.35;1.90;;;10.60;99.90;;;;;;6186902;23;20005;-70
2021/12/16 08:53:53;;;;;;;3.80;1.63;;;10.80;99.90;;;;;;6187732;23;20005;-70
2021/12/16 08:56:21;;;;;;;2.97;1.50;;;10.80;99.90;;;;;;6186768;23;20036;-70
2021/12/16 08:58:47;;;;;;;4.20;2.10;;;10.80;99.90;;;;;;6188051;23;20064;-61
2021/12/16 09:01:19;;;;;;;5.55;1.70;;;10.80;99.90;;;;;;6188779;23;20032;-62
2021/12/16 09:06:28;;;;;;;3.40;1.95;;;10.70;99.90;;;;;;6205401;23;20049;-62
2021/12/16 09:08:56;;;;;;;2.88;1.70;;;10.70;99.90;;;;;;6189285;23;20012;-67
2021/12/16 09:11:25;;;;;;;5.95;1.50;;;10.80;99.90;;;;;;6187978;23;20009;-67
2021/12/16 09:13:55;;;;;;;9.35;2.13;;;10.70;99.90;;;;;;6189204;23;20052;-67
2021/12/16 09:16:24;;;;;;;6.15;2.17;;;10.70;99.90;;;;;;6186440;23;20067;-67
2021/12/16 09:18:52;;;;;;;4.35;1.50;;;10.80;99.90;;;;;;6156901;23;20009;-67
2021/12/16 09:21:24;;;;;;;3.55;1.67;;;10.80;99.90;;;;;;6156806;23;20010;-67
2021/12/16 09:23:53;;;;;;;4.07;2.15;;;10.80;99.90;;;;;;6156748;23;20012;-67
2021/12/16 09:26:20;;;;;;;3.35;1.33;;;10.80;99.90;;;;;;6156668;23;20012;-67
2021/12/16 09:28:47;;;;;;;4.25;1.80;;;10.80;99.90;;;;;;6156522;23;20065;-67
2021/12/16 09:31:16;;;;;;;3.78;1.50;;;10.80;99.90;;;;;;6156667;23;20062;-68
2021/12/16 09:33:49;;;;;;;3.28;1.52;;;10.90;99.90;;;;;;6156629;23;20431;-67
2021/12/16 09:36:20;;;;;;;2.60;1.60;;;10.90;99.90;;;;;;6156378;23;20017;-67
2021/12/16 09:38:49;;;;;;;6.38;1.42;;;10.90;99.90;;;;;;6156541;23;20013;-67
2021/12/16 09:41:16;;;;;;;3.30;1.77;;;11.00;99.90;;;;;;6156201;23;20415;-67
2021/12/16 09:43:47;;;;;;;6.00;1.67;;;11.00;99.90;;;;;;6156018;23;20013;-67
2021/12/16 09:46:23;;;;;;;1.73;1.13;;;11.00;99.90;;;;;;6155024;23;20013;-67
2021/12/16 09:48:51;;;;;;;4.53;1.48;;;11.00;99.90;;;;;;6156497;23;20005;-67
2021/12/16 09:51:28;;;;;;;1.55;1.25;;;11.00;99.90;;;;;;6156549;23;20033;-68
2021/12/16 09:54:06;;;;;;;2.03;1.05;;;11.10;99.90;;;;;;6156478;23;20017;-68
2021/12/16 09:56:34;;;;;;;2.42;1.27;;;11.10;99.90;;;;;;6156273;23;20013;-67
2021/12/16 09:59:03;;;;;;;4.00;2.00;;;11.10;99.90;;;;;;6156357;23;20076;-68
2021/12/16 10:01:33;;;;;;;2.78;1.58;;;11.20;99.90;;;;;;6156387;23;20031;-68
2021/12/16 10:04:05;;;;;;;3.80;1.98;;;11.20;99.90;;;;;;6156327;23;20006;-68
2021/12/16 10:06:36;;;;;;;2.50;1.63;;;11.10;99.90;;;;;;6156189;23;20014;-68
2021/12/16 10:09:07;;;;;;;3.20;1.30;;;11.20;99.90;;;;;;6156270;23;20013;-67
2021/12/16 10:11:36;;;;;;;1.98;1.33;;;11.30;99.90;;;;;;6156425;23;19997;-67
2021/12/16 10:19:32;;;;;;;4.22;1.33;;;11.40;99.90;;;;;;6156076;23;20339;-67
2021/12/16 10:22:18;;;;;;;2.75;1.33;;;11.40;99.90;;;;;;6156138;23;20005;-67
2021/12/16 10:24:47;;;;;;;5.68;1.90;;;11.50;99.90;;;;;;6156010;23;20014;-67
2021/12/16 10:27:18;;;;;;;3.10;1.40;;;11.40;99.90;;;;;;6156233;23;20431;-67
2021/12/16 10:29:53;;;;;;;1.45;1.08;;;11.50;99.90;;;;;;6156089;23;20017;-67
2021/12/16 10:32:41;;;;;;;4.22;1.73;;;11.50;99.90;;;;;;6156173;23;20005;-67
2021/12/16 10:35:14;;;;;;;7.40;1.40;;;11.50;99.90;;;;;;6156304;23;20005;-67
2021/12/16 10:37:53;;;;;;;1.55;1.10;;;11.50;99.90;;;;;;6156078;23;20440;-67
2021/12/16 10:40:43;;;;;;;3.47;1.45;;;11.50;99.90;;;;;;6156632;23;20005;-68
2021/12/16 10:43:43;;;;;;;5.65;1.42;;;11.50;99.90;;;;;;6156575;23;20338;-67
2021/12/16 10:46:22;;;;;;;3.40;1.80;;;11.50;99.90;;;;;;6156015;23;20060;-67
2021/12/16 10:48:56;;;;;;;3.03;1.38;;;11.50;99.90;;;;;;6156226;23;20016;-68
2021/12/16 10:51:33;;;;;;;3.10;1.57;;;11.60;99.90;;;;;;6156790;23;20056;-67
2021/12/16 10:54:11;;;;;;;2.78;1.23;;;11.60;99.90;;;;;;6157981;23;20233;-67
2021/12/16 10:56:59;;;;;;;4.07;1.20;;;11.60;99.90;;;;;;6157922;23;20064;-67
2021/12/16 10:59:31;;;;;;;3.75;1.40;;;11.70;99.90;;;;;;6157972;23;20017;-68
2021/12/16 11:02:06;;;;;;;3.30;1.50;;;11.70;99.90;;;;;;6157902;23;20439;-68
2021/12/16 11:04:41;;;;;;;3.70;1.52;;;11.70;99.90;;;;;;6158134;23;20005;-68
2021/12/16 11:07:40;;;;;;;3.00;1.58;;;11.70;99.90;;;;;;6157535;23;20450;-68
2021/12/16 11:10:20;;;;;;;2.78;1.55;;;11.80;99.90;;;;;;6142465;23;20010;-68
2021/12/16 11:12:59;;;;;;;2.80;1.92;;;11.80;99.90;;;;;;6157892;23;20324;-68
2021/12/16 11:15:29;;;;;;;4.90;1.80;;;11.70;99.90;;;;;;6157907;23;20013;-68
2021/12/16 11:18:07;;;;;;;5.15;1.58;;;11.70;99.90;;;;;;6157999;23;20025;-68
2021/12/16 11:20:42;;;;;;;5.05;2.22;;;11.70;99.90;;;;;;6158332;23;20084;-68
2021/12/16 11:23:37;;;;;;;6.05;1.73;;;11.70;99.90;;;;;;6157933;23;20115;-68
2021/12/16 11:26:18;;;;;;;;;;;11.70;99.90;;;;;;6150056;23;20439;-68
2021/12/16 11:28:47;;;;;;;3.45;1.80;;;11.60;99.90;;;;;;6157876;23;19904;-68
2021/12/16 11:31:30;;;;;;;4.25;1.50;;;11.60;99.90;;;;;;6157825;23;20010;-67
2021/12/16 11:34:01;;;;;;;4.88;2.15;;;11.50;99.90;;;;;;6157667;23;20006;-68
2021/12/16 11:36:44;;;;;;;8.63;2.67;;;11.50;99.90;;;;;;6156196;23;20017;-68
2021/12/16 11:39:18;;;;;;;6.57;2.88;;;11.60;99.90;;;;;;6157700;23;20005;-68
2021/12/16 11:41:46;;;;;;;;;;;11.70;99.90;;;;;;6158184;23;20010;-68
2021/12/16 11:44:42;;;;;;;2.70;1.77;;;11.70;99.90;;;;;;6157747;23;19928;-69
2021/12/16 11:47:17;;;;;;;9.88;2.45;;;11.60;99.90;;;;;;6067762;23;20491;-67
2021/12/16 11:50:05;;;;;;;8.02;2.42;;;11.60;99.90;;;;;;6068039;23;20102;-68
2021/12/16 11:52:37;;;;;;;2.65;1.80;;;11.70;99.90;;;;;;6067572;23;20007;-72
2021/12/16 11:55:12;;;;;;;5.03;2.25;;;11.70;99.90;;;;;;6067594;23;20022;-68
2021/12/16 11:57:43;;;;;;;3.05;1.50;;;11.60;99.90;;;;;;6067716;23;20018;-67
2021/12/16 12:00:17;;;;;;;8.50;2.50;;;11.60;99.90;;;;;;6067641;23;20150;-67
2021/12/16 12:02:47;;;;;;;5.72;2.33;;;11.70;99.90;;;;;;6067946;23;20102;-67
2021/12/16 12:05:24;;;;;;;3.85;1.73;;;11.70;99.90;;;;;;6067391;23;20090;-67
2021/12/16 12:08:13;;;;;;;4.15;1.80;;;11.60;99.90;;;;;;6067264;23;20093;-67
2021/12/16 12:10:45;;;;;;;5.35;1.67;;;11.70;99.90;;;;;;6067555;23;20463;-67
2021/12/16 12:13:25;;;;;;;7.47;1.70;;;11.70;99.90;;;;;;6067535;23;20463;-67
2021/12/16 12:15:58;;;;;;;5.57;1.65;;;11.80;99.90;;;;;;6067264;23;20098;-67
2021/12/16 12:18:44;;;;;;;7.38;2.17;;;11.80;99.90;;;;;;6067410;23;20085;-67
2021/12/16 12:21:20;;;;;;;5.50;2.67;;;11.70;99.90;;;;;;6067457;23;20014;-67
2021/12/16 12:23:49;;;;;;;3.45;1.83;;;11.70;99.90;;;;;;6122189;23;20009;-67
2021/12/16 12:26:18;;;;;;;5.70;1.98;;;11.60;99.90;;;;;;6157245;23;20005;-67
2021/12/16 12:28:48;;;;;;;6.22;2.10;;;11.60;99.90;;;;;;6157199;23;20409;-68
2021/12/16 12:31:17;;;;;;;6.95;2.53;;;11.60;99.90;;;;;;6157134;23;20490;-67
2021/12/16 12:33:46;;;;;;;6.82;2.47;;;11.60;99.90;;;;;;6157173;23;20013;-65
2021/12/16 12:36:16;;;;;;;5.78;2.00;;;11.60;99.90;;;;;;6157273;23;20036;-66
2021/12/16 12:38:42;;;;;;;6.03;2.28;;;11.60;99.90;;;;;;6157096;23;20083;-65
2021/12/16 12:41:09;;;;;;;4.18;2.08;;;11.50;99.90;;;;;;6157763;23;20357;-65
2021/12/16 12:43:37;;;;;;;4.03;2.03;;;11.60;99.90;;;;;;6156940;23;20021;-65
2021/12/16 12:46:05;;;;;;;3.50;1.75;;;11.60;99.90;;;;;;6156936;23;20302;-65
2021/12/16 12:48:39;;;;;;;7.43;2.60;;;11.70;99.90;;;;;;6157106;23;20006;-65
2021/12/16 12:51:06;;;;;;;6.22;2.17;;;11.80;99.90;;;;;;6157102;23;20450;-65
2021/12/16 12:53:36;;;;;;;4.70;2.15;;;11.70;99.90;;;;;;6157839;23;20024;-64
2021/12/16 12:56:29;;;;;;;3.05;1.83;;;11.80;99.90;;;;;;6157373;23;20400;-65
2021/12/16 12:59:11;;;;;;;3.33;1.80;;;11.80;99.90;;;;;;6157006;23;20112;-64
2021/12/16 13:01:51;;;;;;;3.70;1.70;;;11.70;99.90;;;;;;6157053;23;20102;-64
2021/12/16 13:04:32;;;;;;;4.28;1.73;;;11.70;99.90;;;;;;6156839;23;20001;-65
2021/12/16 13:07:06;;;;;;;2.92;1.55;;;11.70;99.90;;;;;;6156509;23;20017;-65
2021/12/16 13:09:50;;;;;;;7.00;2.53;;;11.60;99.90;;;;;;6156984;23;20507;-65
2021/12/16 13:12:44;;;;;;;4.20;2.00;;;11.70;99.90;;;;;;6156945;23;20013;-65
2021/12/16 13:15:24;;;;;;;9.50;2.53;;;11.60;99.90;;;;;;6156527;23;20015;-65
2021/12/16 13:27:04;;;;;;;6.00;2.38;;;11.50;99.90;;;;;;6156930;23;20020;-65
2021/12/16 13:29:54;;;;;;;6.88;2.60;;;11.50;99.90;;;;;;6155217;23;20006;-65
2021/12/16 13:32:28;;;;;;;1.77;1.50;;;11.50;99.90;;;;;;6156574;23;20005;-65
2021/12/16 13:35:48;;;;;;;2.97;1.70;;;11.40;99.90;;;;;;6156418;23;20002;-65
2021/12/16 13:37:49;;;;;;;8.57;1.77;;;11.40;99.90;;;;;;6141041;23;20018;-64
2021/12/16 13:40:25;;;;;;;7.03;2.05;;;11.40;99.90;;;;;;6156701;23;20009;-65
2021/12/16 13:43:09;;;;;;;6.30;1.60;;;11.40;99.90;;;;;;6156304;23;20013;-64
2021/12/16 13:46:20;;;;;;;3.22;1.48;;;11.40;99.90;;;;;;6154755;23;20430;-64
2021/12/16 14:08:45;;;;;;;3.65;1.63;;;11.20;99.90;;;;;;6156410;23;20020;-64
2021/12/16 14:12:29;;;;;;;2.95;1.73;;;11.10;99.90;;;;;;6156196;23;20009;-64
2021/12/16 14:14:55;;;;;;;3.47;1.80;;;11.10;99.90;;;;;;6156233;23;20461;-64
2021/12/16 14:17:41;;;;;;;6.55;2.15;;;11.10;99.90;;;;;;6156201;23;20018;-64
2021/12/16 14:23:41;;;;;;;8.40;1.95;;;11.10;99.90;;;;;;6156172;23;20013;-64
2021/12/16 14:42:47;;;;;;;5.38;2.13;;;10.80;99.90;;;;;;6066807;23;20039;-66
2021/12/16 14:45:41;;;;;;;5.47;1.83;;;10.70;99.90;;;;;;6066081;23;20094;-66
2021/12/16 14:51:11;;;;;;;6.63;2.80;;;10.70;99.90;;;;;;6066186;23;20007;-65
2021/12/16 14:53:51;;;;;;;4.75;2.17;;;10.60;99.90;;;;;;6064906;23;20441;-64
2021/12/16 14:56:20;;;;;;;4.10;2.65;;;10.60;99.90;;;;;;6066509;23;20441;-64
2021/12/16 14:58:53;;;;;;;6.28;2.47;;;10.50;99.90;;;;;;6066082;23;20007;-65
2021/12/16 15:01:25;;;;;;;5.00;2.08;;;10.50;99.90;;;;;;6066151;23;20006;-66
2021/12/16 15:03:53;;;;;;;7.43;1.85;;;10.40;99.90;;;;;;6065833;23;20049;-65
2021/12/16 15:06:50;;;;;;;11.38;3.17;;;10.40;99.90;;;;;;6121059;23;20400;-65
2021/12/16 15:09:31;;;;;;;6.78;2.30;;;10.40;99.90;;;;;;6150967;23;20009;-65
2021/12/16 15:14:58;;;;;;;9.25;3.10;;;10.30;99.90;;;;;;6156331;23;20033;-65
2021/12/16 15:42:49;;;;;;;10.70;4.70;;;9.90;99.90;;;;;;6157581;23;20458;-67
2021/12/16 15:45:36;;;;;;;10.70;4.65;;;9.80;99.90;;;;;;6158049;23;20010;-67
2021/12/16 15:48:13;;;;;;;8.60;3.65;;;9.80;99.90;;;;;;6157713;23;20009;-67
2021/12/16 15:50:56;;;;;;;10.23;4.32;;;9.80;99.90;;;;;;6157858;23;20010;-67
2021/12/16 15:53:29;;;;;;;11.77;4.88;;;9.70;99.90;;;;;;6157599;23;20002;-67
2021/12/16 15:56:08;;;;;;;8.18;4.38;;;9.70;99.90;;;;;;6157571;23;20029;-67
2021/12/16 15:58:39;;;;;;;9.40;4.32;;;9.60;99.90;;;;;;6157476;23;20104;-67
2021/12/16 16:01:14;;;;;;;18.85;4.25;;;9.60;99.90;;;;;;6157504;23;20080;-67
2021/12/16 16:03:44;;;;;;;10.63;4.65;;;9.60;99.90;;;;;;6157537;23;20012;-67
2021/12/16 16:06:17;;;;;;;11.02;4.32;;;9.50;99.90;;;;;;6157277;23;20017;-67
2021/12/16 16:08:54;;;;;;;22.00;6.05;;;9.50;99.90;;;;;;6157384;23;20467;-67
2021/12/16 16:11:33;;;;;;;15.00;5.57;;;9.50;99.90;;;;;;6157704;23;20005;-67
2021/12/16 16:14:03;;;;;;;10.15;5.13;;;9.50;99.90;;;;;;6157337;23;20009;-67
2021/12/16 16:16:42;;;;;;;13.05;5.00;;;9.50;99.90;;;;;;6157599;23;20331;-67
2021/12/16 16:19:16;;;;;;;12.18;5.15;;;9.50;99.90;;;;;;6157833;23;20076;-67
2021/12/16 16:21:50;;;;;;;13.77;5.53;;;9.40;99.90;;;;;;6157601;23;20091;-67
2021/12/16 16:24:19;;;;;;;15.75;5.55;;;9.40;99.90;;;;;;6157705;23;20339;-68
2021/12/16 16:26:48;;;;;;;12.55;5.78;;;9.40;99.90;;;;;;6155645;23;20347;-67
2021/12/16 16:29:20;;;;;;;14.13;6.68;;;9.40;99.90;;;;;;6157313;23;20080;-67
2021/12/16 16:31:51;;;;;;;16.98;6.43;;;9.40;99.90;;;;;;6157238;23;20013;-67
2021/12/16 16:34:25;;;;;;;15.18;6.55;;;9.40;99.90;;;;;;6157358;23;20029;-67
2021/12/16 16:37:02;;;;;;;13.80;5.80;;;9.40;99.90;;;;;;6157089;23;20025;-67
2021/12/16 16:39:34;;;;;;;19.40;7.05;;;9.30;99.90;;;;;;6157334;23;20002;-67
2021/12/16 16:42:05;;;;;;;22.25;7.05;;;9.30;99.90;;;;;;6157622;23;20029;-67
2021/12/16 16:44:37;;;;;;;16.30;7.28;;;9.30;99.90;;;;;;6157107;23;20002;-67
2021/12/16 16:47:13;;;;;;;30.23;9.63;;;9.20;99.90;;;;;;6157156;23;20378;-67
2021/12/16 16:49:53;;;;;;;26.10;9.55;;;9.20;99.90;;;;;;6157810;23;20081;-67
2021/12/16 16:52:24;;;;;;;21.52;9.40;;;9.10;99.90;;;;;;6155600;23;20040;-67
2021/12/16 16:55:02;;;;;;;23.85;10.15;;;9.10;99.90;;;;;;6157105;23;20021;-67
2021/12/16 16:57:47;;;;;;;33.65;14.60;;;9.00;99.90;;;;;;6157314;23;20432;-67
2021/12/16 17:00:20;;;;;;;33.92;13.95;;;9.00;99.90;;;;;;6155562;23;20009;-67
2021/12/16 17:03:08;;;;;;;22.98;9.82;;;8.90;99.90;;;;;;6156959;23;20424;-67
2021/12/16 17:05:54;;;;;;;20.48;10.20;;;8.90;99.90;;;;;;6156958;23;20009;-67
2021/12/16 17:08:26;;;;;;;23.88;10.23;;;8.80;99.90;;;;;;6155339;23;20010;-67
2021/12/16 17:11:08;;;;;;;21.15;10.88;;;8.80;99.90;;;;;;6156875;23;20010;-67